Time;durP1;ratioP1;P1;durP2;ratioP2;P2;SDS_P1;SDS_P2;PMS_P1;PMS_P2;Temp;Humidity;BMP_temperature;BMP_pressure;BME280_temperature;BME280_humidity;BME280_pressure;Samples;Min_cycle;Max_cycle;Signal;HPM_P1;HPM_P2
2021/08/24 00:02:06;;;;;;;3.73;3.50;;;18.50;73.30;;;;;;5056324;28;20515;-69
2021/08/24 00:04:33;;;;;;;3.70;3.40;;;18.50;73.40;;;;;;5056265;28;20441;-70
2021/08/24 00:07:00;;;;;;;5.53;3.73;;;18.50;73.60;;;;;;5056217;28;20445;-69
2021/08/24 00:09:26;;;;;;;4.47;4.07;;;18.50;73.80;;;;;;5056099;28;20457;-69
2021/08/24 00:11:53;;;;;;;4.70;4.00;;;18.50;74.00;;;;;;5056139;28;20492;-69
2021/08/24 00:14:21;;;;;;;6.00;3.90;;;18.50;74.20;;;;;;5055814;28;20437;-69
2021/08/24 00:16:48;;;;;;;5.60;4.43;;;18.50;74.30;;;;;;5056064;28;20449;-69
2021/08/24 00:19:15;;;;;;;4.57;3.40;;;18.40;74.30;;;;;;5055862;28;20484;-69
2021/08/24 00:21:42;;;;;;;5.40;3.73;;;18.40;74.50;;;;;;5055927;28;20446;-69
2021/08/24 00:24:11;;;;;;;5.27;3.90;;;18.40;74.70;;;;;;5055916;28;20449;-69
2021/08/24 00:26:38;;;;;;;5.43;4.13;;;18.40;74.80;;;;;;5055878;28;20452;-69
2021/08/24 00:29:05;;;;;;;4.40;3.67;;;18.30;74.60;;;;;;5055422;28;20462;-69
2021/08/24 00:31:33;;;;;;;5.07;3.83;;;18.30;74.70;;;;;;5055756;28;20445;-69
2021/08/24 00:34:00;;;;;;;6.13;3.20;;;18.30;74.90;;;;;;5055735;28;20441;-69
2021/08/24 00:36:27;;;;;;;3.90;3.27;;;18.30;75.00;;;;;;5056486;28;20449;-69
2021/08/24 00:38:53;;;;;;;4.10;3.20;;;18.30;75.00;;;;;;5055435;28;20527;-69
2021/08/24 00:41:20;;;;;;;3.33;3.03;;;18.30;75.00;;;;;;5055581;28;20441;-69
2021/08/24 00:43:48;;;;;;;3.93;3.50;;;18.30;75.00;;;;;;5055495;28;20455;-69
2021/08/24 00:46:31;;;;;;;5.43;3.10;;;18.30;75.10;;;;;;5055492;28;20491;-69
2021/08/24 00:49:01;;;;;;;4.50;3.70;;;18.20;75.10;;;;;;5055400;28;20470;-69
2021/08/24 00:51:30;;;;;;;3.37;3.00;;;18.20;75.10;;;;;;5055457;28;20791;-69
2021/08/24 00:53:57;;;;;;;3.60;3.20;;;18.20;75.10;;;;;;5055346;28;20466;-69
2021/08/24 00:56:25;;;;;;;4.80;2.83;;;18.20;75.10;;;;;;5055310;28;20472;-69
2021/08/24 00:58:52;;;;;;;4.90;3.30;;;18.10;75.00;;;;;;5054759;28;20465;-69
2021/08/24 01:01:18;;;;;;;4.20;3.07;;;18.10;75.10;;;;;;5055237;28;20438;-69
2021/08/24 01:03:48;;;;;;;4.73;3.10;;;18.10;75.20;;;;;;5055145;28;20445;-69
2021/08/24 01:06:26;;;;;;;4.80;3.63;;;18.10;75.10;;;;;;5055130;28;20449;-69
2021/08/24 01:09:04;;;;;;;5.30;3.47;;;18.10;75.20;;;;;;5055078;28;20462;-69
2021/08/24 01:11:39;;;;;;;3.07;2.77;;;18.10;75.10;;;;;;5055092;28;20434;-69
2021/08/24 01:14:18;;;;;;;3.80;3.00;;;18.00;75.20;;;;;;5055026;28;20428;-69
2021/08/24 01:16:49;;;;;;;5.20;3.33;;;18.00;75.20;;;;;;5054974;28;20457;-69
2021/08/24 01:19:50;;;;;;;3.20;2.90;;;18.00;75.40;;;;;;5054233;28;20432;-69
2021/08/24 01:22:55;;;;;;;3.57;2.90;;;18.00;75.50;;;;;;5054881;28;20191;-69
2021/08/24 01:25:30;;;;;;;8.73;3.00;;;17.90;75.60;;;;;;5017215;28;20457;-69
2021/08/24 01:28:02;;;;;;;5.90;2.30;;;17.90;75.80;;;;;;5054781;28;20421;-69
2021/08/24 01:30:49;;;;;;;4.40;2.87;;;17.90;76.00;;;;;;5054626;28;20465;-69
2021/08/24 01:33:25;;;;;;;4.00;2.73;;;17.90;76.10;;;;;;5054658;28;20425;-69
2021/08/24 01:36:17;;;;;;;3.47;2.63;;;17.90;76.20;;;;;;5054589;28;20426;-69
2021/08/24 01:38:55;;;;;;;8.17;3.20;;;17.80;76.30;;;;;;5054467;28;20472;-69
2021/08/24 01:41:32;;;;;;;4.03;2.97;;;17.90;76.60;;;;;;5054444;28;20469;-69
2021/08/24 01:44:03;;;;;;;3.33;3.03;;;17.80;76.90;;;;;;5054151;28;20426;-69
2021/08/24 01:46:44;;;;;;;3.40;2.77;;;17.90;77.30;;;;;;5054117;28;20922;-69
2021/08/24 01:49:13;;;;;;;3.27;2.97;;;17.80;77.60;;;;;;5054004;28;20469;-69
2021/08/24 01:51:45;;;;;;;5.63;3.30;;;17.90;77.90;;;;;;5054252;28;20588;-69
2021/08/24 01:54:18;;;;;;;3.93;2.70;;;17.80;77.80;;;;;;5053954;28;20896;-69
2021/08/24 01:56:46;;;;;;;3.03;2.53;;;17.80;77.90;;;;;;5053520;28;20426;-69
2021/08/24 01:59:19;;;;;;;2.93;2.63;;;17.80;77.80;;;;;;5053820;28;20481;-69
2021/08/24 02:01:49;;;;;;;5.50;2.93;;;17.80;78.10;;;;;;5054062;28;20445;-70
2021/08/24 02:04:21;;;;;;;5.30;2.97;;;17.80;79.10;;;;;;5054087;28;20430;-69
2021/08/24 02:06:50;;;;;;;2.60;2.40;;;17.80;78.40;;;;;;5053735;28;20900;-69
2021/08/24 02:09:22;;;;;;;3.33;2.47;;;17.80;78.60;;;;;;5053858;28;20477;-69
2021/08/24 02:11:52;;;;;;;2.93;2.63;;;17.80;78.60;;;;;;5053952;28;20421;-69
2021/08/24 02:14:19;;;;;;;3.00;2.50;;;17.80;78.70;;;;;;5053860;28;20445;-69
2021/08/24 02:16:49;;;;;;;3.33;3.03;;;17.80;78.60;;;;;;5053490;28;20437;-69
2021/08/24 02:19:22;;;;;;;5.13;2.73;;;17.80;78.50;;;;;;5053674;28;20473;-69
2021/08/24 02:21:54;;;;;;;3.10;2.73;;;17.80;78.40;;;;;;5053791;28;20430;-69
2021/08/24 02:24:25;;;;;;;3.20;2.90;;;17.80;78.20;;;;;;5053445;28;20896;-69
2021/08/24 02:26:53;;;;;;;6.63;2.80;;;17.80;78.10;;;;;;5053706;28;20426;-69
2021/08/24 02:29:20;;;;;;;3.10;2.67;;;17.80;78.10;;;;;;5053561;28;20519;-69
2021/08/24 02:31:54;;;;;;;2.67;2.47;;;17.80;77.90;;;;;;5053594;28;20450;-69
2021/08/24 02:34:28;;;;;;;5.67;2.80;;;17.80;77.70;;;;;;5053620;28;20794;-69
2021/08/24 02:37:05;;;;;;;3.83;2.70;;;17.80;77.40;;;;;;5053543;28;20441;-69
2021/08/24 02:39:39;;;;;;;5.00;3.20;;;17.70;77.10;;;;;;5053113;28;20866;-69
2021/08/24 02:42:14;;;;;;;3.47;3.17;;;17.70;76.80;;;;;;5053514;28;20796;-69
2021/08/24 02:44:47;;;;;;;3.53;3.00;;;17.70;76.90;;;;;;5053505;28;20434;-69
2021/08/24 02:47:15;;;;;;;4.93;3.40;;;17.70;76.90;;;;;;5053476;28;20437;-69
2021/08/24 02:49:41;;;;;;;5.27;4.23;;;17.60;76.90;;;;;;5053067;28;20481;-69
2021/08/24 02:52:11;;;;;;;4.97;4.47;;;17.60;77.00;;;;;;5053387;28;20449;-69
2021/08/24 02:54:40;;;;;;;4.93;4.00;;;17.60;77.10;;;;;;5053049;28;20927;-69
2021/08/24 02:57:07;;;;;;;5.93;5.17;;;17.60;77.40;;;;;;5053322;28;20460;-69
2021/08/24 02:59:34;;;;;;;5.43;4.40;;;17.50;77.40;;;;;;5052970;28;20473;-69
2021/08/24 03:02:01;;;;;;;9.00;5.60;;;17.60;77.60;;;;;;5053286;28;20448;-69
2021/08/24 03:04:29;;;;;;;5.10;4.03;;;17.50;77.60;;;;;;5053250;28;20453;-69
2021/08/24 03:07:00;;;;;;;6.70;5.23;;;17.50;77.50;;;;;;5053288;28;20788;-69
2021/08/24 03:09:31;;;;;;;6.43;5.87;;;17.50;77.50;;;;;;5056994;28;20979;-69
2021/08/24 03:12:04;;;;;;;6.30;5.70;;;17.50;77.50;;;;;;5057302;28;20433;-69
2021/08/24 03:14:48;;;;;;;7.53;6.00;;;17.50;77.40;;;;;;5057329;28;20434;-69
2021/08/24 03:17:19;;;;;;;7.17;6.47;;;17.50;77.20;;;;;;5057252;28;20430;-69
2021/08/24 03:19:48;;;;;;;6.67;6.07;;;17.40;77.00;;;;;;5056999;28;20476;-69
2021/08/24 03:22:16;;;;;;;8.20;7.43;;;17.50;77.10;;;;;;5057086;28;20441;-69
2021/08/24 03:24:44;;;;;;;9.20;8.27;;;17.40;77.00;;;;;;5057069;28;20468;-69
2021/08/24 03:27:11;;;;;;;9.97;8.97;;;17.40;77.10;;;;;;5056698;28;21001;-69
2021/08/24 03:29:39;;;;;;;9.97;8.70;;;17.40;77.00;;;;;;5056585;28;20967;-69
2021/08/24 03:32:08;;;;;;;9.57;8.63;;;17.30;76.70;;;;;;5056872;28;20448;-69
2021/08/24 03:34:36;;;;;;;10.43;9.43;;;17.30;76.90;;;;;;5056835;28;20449;-69
2021/08/24 03:37:02;;;;;;;10.67;8.50;;;17.30;76.70;;;;;;5056527;28;20445;-69
2021/08/24 03:39:29;;;;;;;10.00;9.00;;;17.30;76.80;;;;;;5056393;28;20461;-69
2021/08/24 03:41:57;;;;;;;11.40;10.30;;;17.30;76.70;;;;;;5056612;28;20488;-69
2021/08/24 03:44:24;;;;;;;11.80;10.20;;;17.30;76.70;;;;;;5056669;28;20442;-69
2021/08/24 03:46:50;;;;;;;10.63;9.63;;;17.20;76.60;;;;;;5056673;28;20430;-69
2021/08/24 03:49:17;;;;;;;9.57;8.60;;;17.20;76.80;;;;;;5056721;28;20472;-69
2021/08/24 03:51:44;;;;;;;11.50;9.53;;;17.10;76.50;;;;;;5056573;28;20449;-69
2021/08/24 03:54:11;;;;;;;12.50;10.40;;;17.10;76.60;;;;;;5056201;28;21014;-69
2021/08/24 03:56:37;;;;;;;10.37;9.37;;;17.10;76.70;;;;;;5056120;28;20959;-69
2021/08/24 03:59:05;;;;;;;9.67;8.70;;;17.10;76.70;;;;;;5056002;28;20477;-69
2021/08/24 04:01:32;;;;;;;9.03;8.13;;;17.00;76.80;;;;;;5055106;28;20461;-69
2021/08/24 04:04:00;;;;;;;10.67;9.57;;;17.00;76.70;;;;;;5055601;28;20445;-69
2021/08/24 04:06:27;;;;;;;9.70;8.80;;;17.00;76.80;;;;;;5055037;28;20840;-69
2021/08/24 04:08:53;;;;;;;10.10;9.20;;;17.00;76.90;;;;;;5054863;28;20469;-70
2021/08/24 04:11:20;;;;;;;9.57;8.67;;;16.90;76.90;;;;;;5054973;28;20810;-69
2021/08/24 04:13:47;;;;;;;9.27;8.40;;;16.90;77.80;;;;;;5055049;28;20477;-69
2021/08/24 04:16:15;;;;;;;7.90;7.20;;;16.90;76.90;;;;;;5054937;28;20442;-69
2021/08/24 04:18:42;;;;;;;10.20;9.20;;;16.90;76.80;;;;;;5054331;28;20446;-70
2021/08/24 04:21:10;;;;;;;9.20;8.40;;;16.80;76.60;;;;;;5054454;28;21064;-69
2021/08/24 04:23:38;;;;;;;11.80;9.37;;;16.80;76.50;;;;;;5054837;28;20445;-69
2021/08/24 04:26:05;;;;;;;9.83;8.37;;;16.80;76.40;;;;;;5054759;28;20449;-69
2021/08/24 04:28:32;;;;;;;10.50;8.73;;;16.70;76.40;;;;;;5054660;28;20457;-70
2021/08/24 04:30:59;;;;;;;9.80;8.80;;;16.70;76.50;;;;;;5054698;28;20442;-69
2021/08/24 04:33:27;;;;;;;10.30;9.20;;;16.70;76.70;;;;;;5054652;28;20425;-69
2021/08/24 04:35:55;;;;;;;10.60;9.50;;;16.70;76.80;;;;;;5054709;28;20430;-69
2021/08/24 04:38:23;;;;;;;9.97;8.87;;;16.60;76.40;;;;;;5054580;28;20499;-69
2021/08/24 04:40:50;;;;;;;9.73;8.83;;;16.60;76.40;;;;;;5054460;28;20595;-69
2021/08/24 04:43:18;;;;;;;10.10;9.10;;;16.50;76.50;;;;;;5054318;28;20446;-69
2021/08/24 04:45:45;;;;;;;9.50;8.50;;;16.50;76.60;;;;;;5054264;28;20932;-69
2021/08/24 04:48:12;;;;;;;9.00;8.17;;;16.40;76.30;;;;;;5054591;28;20450;-69
2021/08/24 04:50:40;;;;;;;9.07;8.27;;;16.40;76.10;;;;;;5054102;28;20967;-69
2021/08/24 04:53:07;;;;;;;9.57;8.63;;;16.40;76.20;;;;;;5054530;28;20457;-69
2021/08/24 04:55:34;;;;;;;9.07;8.20;;;16.30;76.10;;;;;;5054162;28;20904;-69
2021/08/24 04:58:02;;;;;;;9.03;8.17;;;16.30;76.30;;;;;;5054310;28;20448;-69
2021/08/24 05:00:29;;;;;;;9.50;8.60;;;16.30;76.40;;;;;;5018398;28;1036780;-69
2021/08/24 05:02:56;;;;;;;11.10;8.83;;;16.20;76.50;;;;;;5055261;28;20200;-69
2021/08/24 05:05:23;;;;;;;9.73;8.90;;;16.20;76.60;;;;;;5055712;28;20445;-69
2021/08/24 05:07:51;;;;;;;9.17;8.33;;;16.20;76.80;;;;;;5054855;28;20448;-69
2021/08/24 05:10:18;;;;;;;9.60;8.70;;;16.20;76.80;;;;;;5055000;28;20536;-69
2021/08/24 05:12:45;;;;;;;10.47;9.47;;;16.20;76.80;;;;;;5054979;28;20453;-69
2021/08/24 05:15:12;;;;;;;9.37;8.57;;;16.20;76.80;;;;;;5054660;28;20859;-68
2021/08/24 05:17:39;;;;;;;9.93;8.93;;;16.20;77.00;;;;;;5054942;28;20450;-68
2021/08/24 05:20:08;;;;;;;9.40;8.50;;;16.20;77.00;;;;;;5054820;28;20465;-69
2021/08/24 05:22:35;;;;;;;9.93;8.93;;;16.20;77.00;;;;;;5054753;28;20489;-69
2021/08/24 05:25:04;;;;;;;15.00;9.27;;;16.30;77.20;;;;;;5054790;28;20450;-69
2021/08/24 05:27:32;;;;;;;9.57;8.77;;;16.20;77.40;;;;;;5054725;28;20442;-69
2021/08/24 05:30:01;;;;;;;9.97;8.80;;;16.30;77.80;;;;;;5053497;28;20472;-69
2021/08/24 05:32:29;;;;;;;9.63;8.83;;;16.30;77.90;;;;;;5054626;28;20469;-69
2021/08/24 05:34:56;;;;;;;8.97;8.17;;;16.30;78.10;;;;;;5054574;28;20446;-69
2021/08/24 05:37:22;;;;;;;10.00;8.37;;;16.30;78.20;;;;;;5054562;28;20445;-69
2021/08/24 05:39:49;;;;;;;9.10;8.20;;;16.30;78.40;;;;;;5054399;28;20465;-69
2021/08/24 05:42:17;;;;;;;10.37;8.70;;;16.30;79.00;;;;;;5054372;28;20484;-69
2021/08/24 05:44:44;;;;;;;10.63;8.20;;;16.30;79.50;;;;;;5054385;28;20448;-69
2021/08/24 05:47:11;;;;;;;11.20;8.83;;;16.40;79.90;;;;;;5054398;28;20433;-69
2021/08/24 05:49:38;;;;;;;11.80;9.27;;;16.40;80.30;;;;;;5053902;28;21002;-70
2021/08/24 05:52:06;;;;;;;11.53;9.37;;;16.40;80.60;;;;;;5054202;28;20467;-69
2021/08/24 05:54:33;;;;;;;10.87;8.97;;;16.40;81.00;;;;;;5054192;28;20448;-69
2021/08/24 05:56:59;;;;;;;11.00;9.90;;;16.50;81.50;;;;;;5054167;28;20453;-69
2021/08/24 05:59:27;;;;;;;11.70;10.60;;;16.50;81.90;;;;;;5053853;28;20488;-69
2021/08/24 06:01:54;;;;;;;11.60;10.40;;;16.60;82.10;;;;;;5054061;28;20469;-69
2021/08/24 06:04:21;;;;;;;12.57;11.27;;;16.60;82.40;;;;;;5054225;28;20453;-69
2021/08/24 06:06:47;;;;;;;15.63;13.07;;;16.60;82.50;;;;;;5054013;28;20447;-69
2021/08/24 06:09:14;;;;;;;14.63;13.00;;;16.70;82.70;;;;;;5053580;28;20976;-70
2021/08/24 06:11:45;;;;;;;15.90;13.00;;;16.80;82.90;;;;;;5053955;28;20487;-69
2021/08/24 06:14:12;;;;;;;16.67;14.97;;;16.80;83.10;;;;;;5053925;28;20520;-69
2021/08/24 06:16:41;;;;;;;18.37;16.47;;;16.90;83.20;;;;;;5053876;28;20446;-69
2021/08/24 06:19:09;;;;;;;17.87;15.53;;;17.00;83.20;;;;;;5053404;28;20473;-70
2021/08/24 06:21:36;;;;;;;17.57;15.80;;;17.00;83.10;;;;;;5053657;28;20577;-69
2021/08/24 06:24:05;;;;;;;16.17;14.47;;;17.10;83.10;;;;;;5053718;28;20449;-69
2021/08/24 06:26:32;;;;;;;19.47;16.73;;;17.10;83.10;;;;;;5053697;28;20448;-69
2021/08/24 06:28:59;;;;;;;17.50;14.77;;;17.20;83.40;;;;;;5053634;28;20473;-70
2021/08/24 06:31:28;;;;;;;15.50;13.03;;;17.30;83.50;;;;;;5053352;28;20441;-69
2021/08/24 06:33:57;;;;;;;15.47;13.50;;;17.30;83.20;;;;;;5053582;28;20446;-69
2021/08/24 06:36:24;;;;;;;23.60;15.53;;;17.30;83.20;;;;;;5053583;28;20450;-69
2021/08/24 06:38:52;;;;;;;16.87;14.53;;;17.40;83.30;;;;;;5053451;28;20468;-70
2021/08/24 06:41:21;;;;;;;16.90;15.20;;;17.50;83.40;;;;;;5053298;28;20510;-70
2021/08/24 06:43:48;;;;;;;21.20;15.50;;;17.60;83.30;;;;;;5053443;28;20445;-70
2021/08/24 06:46:14;;;;;;;15.43;13.93;;;17.60;83.20;;;;;;5053431;28;20450;-70
2021/08/24 06:48:41;;;;;;;16.00;14.37;;;17.70;82.90;;;;;;5053390;28;20448;-70
2021/08/24 06:51:10;;;;;;;14.63;12.87;;;17.80;83.00;;;;;;5054148;28;20791;-70
2021/08/24 06:53:37;;;;;;;17.60;13.33;;;17.90;83.00;;;;;;5053400;28;20456;-70
2021/08/24 06:56:05;;;;;;;15.30;13.77;;;18.00;83.10;;;;;;5053321;28;20446;-69
2021/08/24 06:58:31;;;;;;;15.20;13.23;;;18.10;82.80;;;;;;5053231;28;20448;-70
2021/08/24 07:00:58;;;;;;;15.90;13.03;;;18.20;82.70;;;;;;5052780;28;20828;-70
2021/08/24 07:03:25;;;;;;;16.33;12.90;;;18.30;82.00;;;;;;5053341;28;20832;-70
2021/08/24 07:05:52;;;;;;;13.00;11.60;;;18.40;81.50;;;;;;5053240;28;20434;-69
2021/08/24 07:08:20;;;;;;;14.10;12.23;;;18.50;81.30;;;;;;5052954;28;20896;-69
2021/08/24 07:10:48;;;;;;;14.40;12.90;;;18.60;81.00;;;;;;5052651;28;20835;-69
2021/08/24 07:13:15;;;;;;;15.70;11.30;;;18.70;80.70;;;;;;5053137;28;20446;-69
2021/08/24 07:15:42;;;;;;;13.70;12.20;;;18.80;80.10;;;;;;5053165;28;20496;-70
2021/08/24 07:18:09;;;;;;;13.67;11.10;;;18.90;79.80;;;;;;5053141;28;20441;-70
2021/08/24 07:20:36;;;;;;;17.13;13.20;;;19.00;79.50;;;;;;5053042;28;20468;-69
2021/08/24 07:23:03;;;;;;;13.73;12.30;;;19.10;79.10;;;;;;5052998;28;20484;-69
2021/08/24 07:25:37;;;;;;;17.90;13.70;;;19.20;78.50;;;;;;5052795;28;20445;-69
2021/08/24 07:28:08;;;;;;;19.73;14.63;;;19.30;77.60;;;;;;5053094;28;20476;-69
2021/08/24 07:30:35;;;;;;;16.27;13.53;;;19.50;77.40;;;;;;5052880;28;20553;-69
2021/08/24 07:33:02;;;;;;;17.00;13.10;;;19.60;77.00;;;;;;5052977;28;20874;-69
2021/08/24 07:35:29;;;;;;;19.87;11.87;;;19.80;76.60;;;;;;5052811;28;20454;-69
2021/08/24 07:37:56;;;;;;;13.73;12.17;;;19.90;76.10;;;;;;5052935;28;20441;-69
2021/08/24 07:40:24;;;;;;;15.60;12.80;;;20.00;75.20;;;;;;5052807;28;20512;-70
2021/08/24 07:42:52;;;;;;;14.33;11.80;;;20.10;73.80;;;;;;5052846;28;20481;-69
2021/08/24 07:45:19;;;;;;;13.50;10.63;;;20.20;73.40;;;;;;5052869;28;20445;-69
2021/08/24 07:47:46;;;;;;;12.53;10.87;;;20.40;72.70;;;;;;5052885;28;20430;-70
2021/08/24 07:50:13;;;;;;;14.50;10.53;;;20.60;72.10;;;;;;5052833;28;20465;-69
2021/08/24 07:52:40;;;;;;;15.23;10.17;;;20.70;71.70;;;;;;5052810;28;20453;-70
2021/08/24 07:55:07;;;;;;;11.07;9.47;;;20.90;71.30;;;;;;5056470;28;20442;-69
2021/08/24 07:57:34;;;;;;;13.53;9.03;;;21.00;70.40;;;;;;5056481;28;20518;-70
2021/08/24 08:00:03;;;;;;;11.43;8.53;;;21.20;69.90;;;;;;5056121;28;20481;-69
2021/08/24 08:02:30;;;;;;;12.13;9.03;;;21.40;69.70;;;;;;5056306;28;20492;-69
2021/08/24 08:04:57;;;;;;;10.40;8.30;;;21.60;68.60;;;;;;5055935;28;20430;-70
2021/08/24 08:07:23;;;;;;;19.13;8.13;;;21.70;67.40;;;;;;5056246;28;20456;-70
2021/08/24 08:09:50;;;;;;;11.17;8.20;;;21.90;66.60;;;;;;5055954;28;20469;-70
2021/08/24 08:12:19;;;;;;;10.83;9.07;;;22.10;66.00;;;;;;5055641;28;20840;-70
2021/08/24 08:14:46;;;;;;;13.13;9.53;;;22.30;65.00;;;;;;5056134;28;20814;-70
2021/08/24 08:17:14;;;;;;;11.03;8.73;;;22.50;64.40;;;;;;5055958;28;20442;-70
2021/08/24 08:19:41;;;;;;;11.57;8.97;;;22.70;63.60;;;;;;5055983;28;20472;-70
2021/08/24 08:22:08;;;;;;;9.70;8.10;;;22.90;62.60;;;;;;5055782;28;20480;-70
2021/08/24 08:24:36;;;;;;;11.70;8.70;;;23.00;61.60;;;;;;5056010;28;20457;-70
2021/08/24 08:27:03;;;;;;;8.63;7.43;;;23.20;61.30;;;;;;5055943;28;20453;-70
2021/08/24 08:29:29;;;;;;;8.87;7.33;;;23.40;60.80;;;;;;5055521;28;20453;-70
2021/08/24 08:32:00;;;;;;;10.43;7.50;;;23.50;59.70;;;;;;5055861;28;20819;-70
2021/08/24 08:34:28;;;;;;;9.80;7.60;;;23.70;59.10;;;;;;5055496;28;20891;-70
2021/08/24 08:36:55;;;;;;;9.83;7.80;;;23.90;58.70;;;;;;5055653;28;20441;-70
2021/08/24 08:39:22;;;;;;;9.60;6.97;;;24.10;58.20;;;;;;5055377;28;20465;-70
2021/08/24 08:42:15;;;;;;;9.20;7.57;;;24.30;58.00;;;;;;5055327;28;20485;-70
2021/08/24 08:44:50;;;;;;;9.70;7.57;;;24.50;57.50;;;;;;5045150;28;20453;-70
2021/08/24 08:47:30;;;;;;;10.70;7.03;;;24.70;56.50;;;;;;5055513;28;20426;-70
2021/08/24 08:50:05;;;;;;;9.17;6.40;;;24.80;56.00;;;;;;5055401;28;20470;-70
2021/08/24 08:52:38;;;;;;;10.43;6.90;;;24.90;55.50;;;;;;5055351;28;20425;-70
2021/08/24 08:55:10;;;;;;;9.70;5.10;;;25.10;55.10;;;;;;5054961;28;20460;-70
2021/08/24 08:57:43;;;;;;;7.77;4.87;;;25.30;54.40;;;;;;5055425;28;20433;-70
2021/08/24 09:00:14;;;;;;;7.60;4.70;;;25.50;54.10;;;;;;5055005;28;20854;-70
2021/08/24 09:02:49;;;;;;;8.47;4.73;;;25.70;53.70;;;;;;5055201;28;20462;-70
2021/08/24 09:05:20;;;;;;;7.10;5.00;;;25.90;53.30;;;;;;5054080;28;20468;-70
2021/08/24 09:07:52;;;;;;;7.17;4.63;;;26.00;52.00;;;;;;5054751;28;20907;-70
2021/08/24 09:10:23;;;;;;;7.93;5.50;;;26.20;51.80;;;;;;5055121;28;20552;-70
2021/08/24 09:13:01;;;;;;;6.83;4.77;;;26.40;51.50;;;;;;5055112;28;20426;-70
2021/08/24 09:15:38;;;;;;;9.33;5.53;;;26.50;50.50;;;;;;5054985;28;20432;-70
2021/08/24 09:18:07;;;;;;;6.67;4.40;;;26.70;49.90;;;;;;5054491;28;20762;-70
2021/08/24 09:20:40;;;;;;;7.00;4.77;;;26.90;48.80;;;;;;5054825;28;20465;-70
2021/08/24 09:23:16;;;;;;;7.47;4.20;;;27.00;48.10;;;;;;5054632;28;20802;-70
2021/08/24 09:25:58;;;;;;;6.97;3.80;;;27.10;47.80;;;;;;5054864;28;20433;-70
2021/08/24 09:28:26;;;;;;;6.50;3.40;;;27.30;45.80;;;;;;5054487;28;20923;-70
2021/08/24 09:30:54;;;;;;;4.60;3.60;;;27.40;46.10;;;;;;5054442;28;20441;-70
2021/08/24 09:33:22;;;;;;;5.60;3.43;;;27.50;45.10;;;;;;5054342;28;20936;-70
2021/08/24 09:35:50;;;;;;;5.40;3.63;;;27.70;45.30;;;;;;5054625;28;20445;-70
2021/08/24 09:38:19;;;;;;;4.60;3.70;;;27.80;44.60;;;;;;5054598;28;20445;-70
2021/08/24 09:40:48;;;;;;;5.80;3.73;;;28.00;44.40;;;;;;5054296;28;20472;-70
2021/08/24 09:43:22;;;;;;;7.90;3.77;;;28.30;44.00;;;;;;5054100;28;20991;-70
2021/08/24 09:45:59;;;;;;;5.27;3.30;;;28.50;43.40;;;;;;5054542;28;20434;-70
2021/08/24 09:48:27;;;;;;;5.57;3.17;;;28.70;42.20;;;;;;5054415;28;20438;-70
2021/08/24 09:51:15;;;;;;;6.23;3.30;;;28.90;41.70;;;;;;5054221;28;20445;-70
2021/08/24 09:53:43;;;;;;;4.30;2.83;;;29.00;39.90;;;;;;5054296;28;20437;-70
2021/08/24 09:56:12;;;;;;;3.17;2.87;;;29.20;39.90;;;;;;5054115;28;20781;-70
2021/08/24 09:58:46;;;;;;;3.40;2.90;;;29.30;39.40;;;;;;5054130;28;20446;-71
2021/08/24 10:01:16;;;;;;;3.53;3.10;;;29.50;39.30;;;;;;5053713;28;20547;-70
2021/08/24 10:03:46;;;;;;;4.30;2.83;;;29.70;38.80;;;;;;5054012;28;20490;-70
2021/08/24 10:06:29;;;;;;;3.70;3.23;;;29.90;37.80;;;;;;5053621;28;20824;-70
2021/08/24 10:09:11;;;;;;;4.23;3.30;;;30.10;37.10;;;;;;5053812;28;20465;-71
2021/08/24 10:11:38;;;;;;;3.90;2.67;;;30.40;37.10;;;;;;5053945;28;20491;-71
2021/08/24 10:14:19;;;;;;;7.23;3.27;;;30.50;33.90;;;;;;5053937;28;20442;-71
2021/08/24 10:16:47;;;;;;;4.47;3.50;;;30.70;35.20;;;;;;5054092;28;20780;-71
2021/08/24 10:19:20;;;;;;;8.40;3.93;;;30.90;34.90;;;;;;5053780;28;20461;-71
2021/08/24 10:21:56;;;;;;;9.60;5.23;;;31.20;34.90;;;;;;5053870;28;20786;-71
2021/08/24 10:24:27;;;;;;;4.60;3.30;;;31.50;34.50;;;;;;5053752;28;20470;-71
2021/08/24 10:26:58;;;;;;;4.47;3.10;;;31.80;34.00;;;;;;5053791;28;20822;-71
2021/08/24 10:29:28;;;;;;;4.23;3.83;;;32.10;31.50;;;;;;5053502;28;20468;-71
2021/08/24 10:31:58;;;;;;;3.87;3.20;;;32.40;32.30;;;;;;5053298;28;20472;-71
2021/08/24 10:34:31;;;;;;;3.23;2.90;;;32.70;30.80;;;;;;5053691;28;20531;-71
2021/08/24 10:37:15;;;;;;;7.07;3.70;;;33.10;31.10;;;;;;5053645;28;20436;-71
2021/08/24 10:39:42;;;;;;;5.57;3.53;;;33.50;30.50;;;;;;5053401;28;20457;-71
2021/08/24 10:42:18;;;;;;;3.87;2.90;;;34.00;29.80;;;;;;5053329;28;20444;-71
2021/08/24 10:44:49;;;;;;;3.70;3.40;;;34.40;29.20;;;;;;5053420;28;20464;-71
2021/08/24 10:47:25;;;;;;;13.50;3.20;;;34.90;28.40;;;;;;5053481;28;20437;-71
2021/08/24 10:49:53;;;;;;;4.90;3.13;;;35.40;28.10;;;;;;5053320;28;20460;-71
2021/08/24 10:52:37;;;;;;;3.03;2.73;;;35.80;27.30;;;;;;5053090;28;20962;-71
2021/08/24 10:55:11;;;;;;;3.53;3.20;;;36.30;26.50;;;;;;5053167;28;20440;-71
2021/08/24 10:57:47;;;;;;;8.20;3.47;;;36.80;25.80;;;;;;5053291;28;20548;-71
2021/08/24 11:00:26;;;;;;;4.80;3.25;;;37.20;25.10;;;;;;5052917;28;20240;-71
2021/08/24 11:03:07;;;;;;;5.68;3.55;;;37.70;24.50;;;;;;5053274;28;20206;-71
2021/08/24 11:05:47;;;;;;;4.03;3.30;;;38.00;24.40;;;;;;5053340;28;20240;-71
2021/08/24 11:08:27;;;;;;;9.63;3.88;;;38.40;24.20;;;;;;5053363;28;20190;-71
2021/08/24 11:11:01;;;;;;;7.07;4.47;;;38.80;23.10;;;;;;5053111;28;20225;-71
2021/08/24 11:13:38;;;;;;;7.28;3.30;;;39.10;23.20;;;;;;5053330;28;20179;-71
2021/08/24 11:16:16;;;;;;;4.38;3.42;;;39.40;23.00;;;;;;5053264;28;20186;-71
2021/08/24 11:18:49;;;;;;;5.25;3.55;;;39.60;22.50;;;;;;5053147;28;20197;-72
2021/08/24 11:21:25;;;;;;;6.97;3.40;;;39.70;22.20;;;;;;5053179;28;20564;-71
2021/08/24 11:24:10;;;;;;;4.20;3.10;;;39.70;20.80;;;;;;5052743;28;20598;-71
2021/08/24 11:26:43;;;;;;;4.50;3.20;;;39.80;21.40;;;;;;5053043;28;20194;-71
2021/08/24 11:29:27;;;;;;;7.03;3.20;;;40.00;21.00;;;;;;5055083;28;20708;-71
2021/08/24 11:32:00;;;;;;;6.13;2.88;;;40.10;21.60;;;;;;5056474;28;20190;-71
2021/08/24 11:34:32;;;;;;;6.10;3.20;;;40.20;21.60;;;;;;5056949;28;20237;-71
2021/08/24 11:37:04;;;;;;;4.90;3.33;;;40.30;21.20;;;;;;5056595;28;20633;-71
2021/08/24 11:39:41;;;;;;;4.03;3.35;;;40.40;21.00;;;;;;5056606;28;20222;-72
2021/08/24 11:42:09;;;;;;;3.33;3.03;;;40.60;21.10;;;;;;5056400;28;20198;-71
2021/08/24 11:44:43;;;;;;;4.13;3.05;;;40.70;20.60;;;;;;5056327;28;20226;-71
2021/08/24 11:47:14;;;;;;;5.63;3.38;;;41.00;20.00;;;;;;5056632;28;20198;-71
2021/08/24 11:49:44;;;;;;;5.72;3.72;;;40.90;20.00;;;;;;5056661;28;20595;-72
2021/08/24 11:52:23;;;;;;;3.35;3.05;;;40.80;20.30;;;;;;5056423;28;20202;-72
2021/08/24 11:54:59;;;;;;;3.47;3.00;;;40.60;20.90;;;;;;5056394;28;20190;-71
2021/08/24 11:57:31;;;;;;;3.00;2.70;;;40.50;20.90;;;;;;5056465;28;20285;-71
2021/08/24 11:59:57;;;;;;;3.67;3.38;;;40.70;20.70;;;;;;5056011;28;20230;-71
2021/08/24 12:02:26;;;;;;;3.53;3.22;;;40.80;20.00;;;;;;5056225;28;20209;-71
2021/08/24 12:04:55;;;;;;;3.72;3.08;;;40.90;20.50;;;;;;5056343;28;20207;-71
2021/08/24 12:07:33;;;;;;;5.20;2.90;;;41.30;20.40;;;;;;5056219;28;20226;-71
2021/08/24 12:10:04;;;;;;;5.75;2.97;;;41.70;19.70;;;;;;5056093;28;20230;-72
2021/08/24 12:12:46;;;;;;;4.18;3.58;;;42.20;19.60;;;;;;5056154;28;20256;-72
2021/08/24 12:15:27;;;;;;;3.03;2.70;;;42.50;18.70;;;;;;5056102;28;20198;-72
2021/08/24 12:18:02;;;;;;;4.20;2.85;;;42.80;18.70;;;;;;5056004;28;20245;-72
2021/08/24 12:20:34;;;;;;;6.72;3.03;;;43.10;18.50;;;;;;5055979;28;20225;-72
2021/08/24 12:23:03;;;;;;;3.03;2.72;;;43.40;17.50;;;;;;5055898;28;20261;-72
2021/08/24 12:25:34;;;;;;;3.47;3.17;;;43.80;17.20;;;;;;5055890;28;20202;-71
2021/08/24 12:28:07;;;;;;;3.90;3.10;;;44.00;17.40;;;;;;5055800;28;20195;-71
2021/08/24 12:30:58;;;;;;;2.75;2.55;;;44.30;17.30;;;;;;5055546;28;20270;-72
2021/08/24 12:33:32;;;;;;;3.67;2.50;;;44.50;17.00;;;;;;5055390;28;20234;-72
2021/08/24 12:36:00;;;;;;;4.88;3.00;;;44.70;16.50;;;;;;5055665;28;20187;-72
2021/08/24 12:38:47;;;;;;;3.17;2.65;;;44.90;16.10;;;;;;5055291;28;20684;-72
2021/08/24 12:41:44;;;;;;;5.70;3.05;;;45.20;15.90;;;;;;5055527;28;20190;-72
2021/08/24 12:44:23;;;;;;;3.55;2.72;;;45.30;15.60;;;;;;5055510;28;20611;-72
2021/08/24 12:46:50;;;;;;;4.18;3.13;;;45.40;15.80;;;;;;5055495;28;20612;-72
2021/08/24 12:49:32;;;;;;;2.60;2.40;;;45.50;15.90;;;;;;5055293;28;20223;-72
2021/08/24 12:52:19;;;;;;;3.35;3.05;;;45.70;16.00;;;;;;5055109;28;20714;-72
2021/08/24 12:54:49;;;;;;;2.72;2.53;;;45.90;15.60;;;;;;5052612;28;20669;-72
2021/08/24 12:57:25;;;;;;;4.57;2.90;;;46.00;15.20;;;;;;5055320;28;20190;-72
2021/08/24 12:59:53;;;;;;;2.90;2.70;;;46.10;14.70;;;;;;5054862;28;20280;-72
2021/08/24 13:02:30;;;;;;;4.03;2.35;;;46.40;15.10;;;;;;5055156;28;20213;-72